sensor_id;sensor_type;location;lat;lon;timestamp;pressure;altitude;pressure_sealevel;temperature;humidity
71857;BME280;63344;46.980;28.882;2023-04-22T00:00:26;100327.06;;;7.84;90.85
71857;BME280;63344;46.980;28.882;2023-04-22T00:03:14;100325.25;;;7.84;91.09
71857;BME280;63344;46.980;28.882;2023-04-22T00:05:42;100314.69;;;7.84;90.92
71857;BME280;63344;46.980;28.882;2023-04-22T00:08:11;100329.50;;;7.90;90.88
71857;BME280;63344;46.980;28.882;2023-04-22T00:10:38;100337.38;;;7.91;90.29
71857;BME280;63344;46.980;28.882;2023-04-22T00:13:05;100324.03;;;7.94;90.05
71857;BME280;63344;46.980;28.882;2023-04-22T00:15:32;100331.06;;;7.95;89.77
71857;BME280;63344;46.980;28.882;2023-04-22T00:18:00;100333.69;;;7.97;89.37
71857;BME280;63344;46.980;28.882;2023-04-22T00:20:27;100333.69;;;7.97;89.15
71857;BME280;63344;46.980;28.882;2023-04-22T00:22:55;100328.31;;;7.98;88.41
71857;BME280;63344;46.980;28.882;2023-04-22T00:25:22;100331.06;;;7.95;88.52
71857;BME280;63344;46.980;28.882;2023-04-22T00:27:49;100339.81;;;7.97;88.26
71857;BME280;63344;46.980;28.882;2023-04-22T00:30:16;100331.91;;;7.97;87.62
71857;BME280;63344;46.980;28.882;2023-04-22T00:32:44;100340.84;;;7.93;87.96
71857;BME280;63344;46.980;28.882;2023-04-22T00:35:11;100337.44;;;7.90;87.90
71857;BME280;63344;46.980;28.882;2023-04-22T00:37:39;100341.03;;;7.87;87.93
71857;BME280;63344;46.980;28.882;2023-04-22T00:40:06;100341.03;;;7.87;88.12
71857;BME280;63344;46.980;28.882;2023-04-22T00:42:36;100344.50;;;7.89;87.67
71857;BME280;63344;46.980;28.882;2023-04-22T00:45:04;100347.09;;;7.91;86.78
71857;BME280;63344;46.980;28.882;2023-04-22T00:47:35;100341.84;;;7.89;86.20
71857;BME280;63344;46.980;28.882;2023-04-22T00:50:03;100350.69;;;7.88;86.63
71857;BME280;63344;46.980;28.882;2023-04-22T00:52:31;100350.00;;;7.83;86.63
71857;BME280;63344;46.980;28.882;2023-04-22T00:54:58;100353.56;;;7.81;86.97
71857;BME280;63344;46.980;28.882;2023-04-22T00:57:28;100356.28;;;7.79;86.23
71857;BME280;63344;46.980;28.882;2023-04-22T00:59:56;100354.59;;;7.76;86.49
71857;BME280;63344;46.980;28.882;2023-04-22T01:02:23;100358.19;;;7.74;86.40
71857;BME280;63344;46.980;28.882;2023-04-22T01:04:51;100355.66;;;7.71;86.33
71857;BME280;63344;46.980;28.882;2023-04-22T01:07:22;100359.22;;;7.70;86.47
71857;BME280;63344;46.980;28.882;2023-04-22T01:09:49;100361.88;;;7.68;86.64
71857;BME280;63344;46.980;28.882;2023-04-22T01:12:17;100360.25;;;7.64;86.31
71857;BME280;63344;46.980;28.882;2023-04-22T01:14:44;100354.13;;;7.64;85.92
71857;BME280;63344;46.980;28.882;2023-04-22T01:17:12;100366.47;;;7.63;86.39
71857;BME280;63344;46.980;28.882;2023-04-22T01:19:40;100361.19;;;7.63;86.46
71857;BME280;63344;46.980;28.882;2023-04-22T01:22:11;100368.22;;;7.63;86.10
71857;BME280;63344;46.980;28.882;2023-04-22T01:24:39;100367.34;;;7.64;86.06
71857;BME280;63344;46.980;28.882;2023-04-22T01:27:07;100364.72;;;7.62;86.23
71857;BME280;63344;46.980;28.882;2023-04-22T01:29:36;100363.84;;;7.63;85.81
71857;BME280;63344;46.980;28.882;2023-04-22T01:32:05;100369.19;;;7.60;85.66
71857;BME280;63344;46.980;28.882;2023-04-22T01:34:32;100376.28;;;7.60;85.89
71857;BME280;63344;46.980;28.882;2023-04-22T01:37:00;100375.44;;;7.57;85.69
71857;BME280;63344;46.980;28.882;2023-04-22T01:39:28;100371.16;;;7.53;85.85
71857;BME280;63344;46.980;28.882;2023-04-22T01:41:56;100372.13;;;7.51;85.74
71857;BME280;63344;46.980;28.882;2023-04-22T01:44:24;100381.94;;;7.47;85.93
71857;BME280;63344;46.980;28.882;2023-04-22T01:46:53;100379.41;;;7.43;86.06
71857;BME280;63344;46.980;28.882;2023-04-22T01:49:21;100384.84;;;7.38;86.25
71857;BME280;63344;46.980;28.882;2023-04-22T01:51:50;100384.94;;;7.35;86.63
71857;BME280;63344;46.980;28.882;2023-04-22T01:54:17;100385.09;;;7.29;86.38
71857;BME280;63344;46.980;28.882;2023-04-22T01:56:54;100383.44;;;7.25;86.45
71857;BME280;63344;46.980;28.882;2023-04-22T01:59:21;100388.84;;;7.22;86.56
71857;BME280;63344;46.980;28.882;2023-04-22T02:01:49;100381.00;;;7.18;86.56
71857;BME280;63344;46.980;28.882;2023-04-22T02:04:16;100383.72;;;7.15;86.77
71857;BME280;63344;46.980;28.882;2023-04-22T02:06:43;100389.00;;;7.15;87.28
71857;BME280;63344;46.980;28.882;2023-04-22T02:09:10;100373.13;;;7.17;86.93
71857;BME280;63344;46.980;28.882;2023-04-22T02:11:38;100380.91;;;7.22;87.22
71857;BME280;63344;46.980;28.882;2023-04-22T02:14:05;100383.38;;;7.28;87.26
71857;BME280;63344;46.980;28.882;2023-04-22T02:16:32;100382.41;;;7.30;86.79
71857;BME280;63344;46.980;28.882;2023-04-22T02:18:59;100387.66;;;7.32;86.90
71857;BME280;63344;46.980;28.882;2023-04-22T02:21:28;100384.97;;;7.33;86.64
71857;BME280;63344;46.980;28.882;2023-04-22T02:23:55;100382.34;;;7.33;86.45
71857;BME280;63344;46.980;28.882;2023-04-22T02:26:23;100384.88;;;7.36;86.68
71857;BME280;63344;46.980;28.882;2023-04-22T02:28:52;100387.44;;;7.40;86.57
71857;BME280;63344;46.980;28.882;2023-04-22T02:31:19;100383.84;;;7.42;86.04
71857;BME280;63344;46.980;28.882;2023-04-22T02:33:46;100387.41;;;7.41;86.02
71857;BME280;63344;46.980;28.882;2023-04-22T02:36:14;100386.47;;;7.42;85.68
71857;BME280;63344;46.980;28.882;2023-04-22T02:38:41;100378.53;;;7.42;85.48
71857;BME280;63344;46.980;28.882;2023-04-22T02:41:08;100381.22;;;7.41;85.90
71857;BME280;63344;46.980;28.882;2023-04-22T02:43:36;100373.38;;;7.39;86.09
71857;BME280;63344;46.980;28.882;2023-04-22T02:46:04;100376.06;;;7.37;85.79
71857;BME280;63344;46.980;28.882;2023-04-22T02:48:32;100379.59;;;7.36;85.76
71857;BME280;63344;46.980;28.882;2023-04-22T02:50:59;100379.59;;;7.36;85.70
71857;BME280;63344;46.980;28.882;2023-04-22T02:53:26;100376.06;;;7.37;85.51
71857;BME280;63344;46.980;28.882;2023-04-22T02:55:54;100384.84;;;7.38;85.40
71857;BME280;63344;46.980;28.882;2023-04-22T02:58:23;100392.88;;;7.35;85.66
71857;BME280;63344;46.980;28.882;2023-04-22T03:00:50;100395.53;;;7.33;85.76
71857;BME280;63344;46.980;28.882;2023-04-22T03:03:17;100392.94;;;7.32;85.82
71857;BME280;63344;46.980;28.882;2023-04-22T03:05:45;100399.97;;;7.33;85.68
71857;BME280;63344;46.980;28.882;2023-04-22T03:08:12;100405.25;;;7.33;85.96
71857;BME280;63344;46.980;28.882;2023-04-22T03:10:39;100396.44;;;7.32;85.45
71857;BME280;63344;46.980;28.882;2023-04-22T03:13:07;100402.50;;;7.36;85.74
71857;BME280;63344;46.980;28.882;2023-04-22T03:15:34;100402.44;;;7.39;85.87
71857;BME280;63344;46.980;28.882;2023-04-22T03:18:01;100406.78;;;7.40;85.55
71857;BME280;63344;46.980;28.882;2023-04-22T03:20:29;100410.22;;;7.44;85.80
71857;BME280;63344;46.980;28.882;2023-04-22T03:22:56;100417.13;;;7.48;85.00
71857;BME280;63344;46.980;28.882;2023-04-22T03:25:24;100412.63;;;7.51;84.91
71857;BME280;63344;46.980;28.882;2023-04-22T03:27:51;100415.09;;;7.57;84.43
71857;BME280;63344;46.980;28.882;2023-04-22T03:30:18;100412.41;;;7.59;84.72
71857;BME280;63344;46.980;28.882;2023-04-22T03:32:45;100418.44;;;7.63;84.25
71857;BME280;63344;46.980;28.882;2023-04-22T03:35:13;100415.72;;;7.66;84.41
71857;BME280;63344;46.980;28.882;2023-04-22T03:37:40;100423.50;;;7.70;84.09
71857;BME280;63344;46.980;28.882;2023-04-22T03:40:08;100427.84;;;7.73;84.22
71857;BME280;63344;46.980;28.882;2023-04-22T03:42:35;100433.03;;;7.76;83.95
71857;BME280;63344;46.980;28.882;2023-04-22T03:45:03;100434.66;;;7.80;83.89
71857;BME280;63344;46.980;28.882;2023-04-22T03:47:30;100439.88;;;7.83;83.37
71857;BME280;63344;46.980;28.882;2023-04-22T03:49:57;100438.91;;;7.86;82.94
71857;BME280;63344;46.980;28.882;2023-04-22T03:52:24;100439.81;;;7.85;83.44
71857;BME280;63344;46.980;28.882;2023-04-22T03:54:52;100443.41;;;7.82;83.63
71857;BME280;63344;46.980;28.882;2023-04-22T03:57:19;100447.94;;;7.78;84.42
71857;BME280;63344;46.980;28.882;2023-04-22T03:59:46;100447.06;;;7.78;84.08
71857;BME280;63344;46.980;28.882;2023-04-22T04:02:13;100446.22;;;7.77;84.44
71857;BME280;63344;46.980;28.882;2023-04-22T04:04:41;100456.78;;;7.77;85.19
71857;BME280;63344;46.980;28.882;2023-04-22T04:07:10;100456.78;;;7.77;84.93
71857;BME280;63344;46.980;28.882;2023-04-22T04:09:38;100459.44;;;7.77;84.56
71857;BME280;63344;46.980;28.882;2023-04-22T04:12:06;100465.50;;;7.81;84.50
71857;BME280;63344;46.980;28.882;2023-04-22T04:14:33;100469.78;;;7.85;84.36
71857;BME280;63344;46.980;28.882;2023-04-22T04:17:00;100466.13;;;7.89;83.94
71857;BME280;63344;46.980;28.882;2023-04-22T04:19:28;100471.31;;;7.92;83.73
71857;BME280;63344;46.980;28.882;2023-04-22T04:21:55;100478.97;;;8.02;83.96
71857;BME280;63344;46.980;28.882;2023-04-22T04:24:23;100476.13;;;8.08;83.63
71857;BME280;63344;46.980;28.882;2023-04-22T04:26:52;100476.75;;;8.16;82.45
71857;BME280;63344;46.980;28.882;2023-04-22T04:29:19;100482.69;;;8.24;81.79
71857;BME280;63344;46.980;28.882;2023-04-22T04:31:46;100486.69;;;8.37;82.11
71857;BME280;63344;46.980;28.882;2023-04-22T04:34:41;100481.00;;;8.50;81.22
71857;BME280;63344;46.980;28.882;2023-04-22T04:37:12;100485.84;;;8.64;81.07
71857;BME280;63344;46.980;28.882;2023-04-22T04:39:40;100494.31;;;8.75;80.08
71857;BME280;63344;46.980;28.882;2023-04-22T04:42:17;100496.63;;;8.84;79.91
71857;BME280;63344;46.980;28.882;2023-04-22T04:44:57;100495.38;;;8.96;79.16
71857;BME280;63344;46.980;28.882;2023-04-22T04:47:24;100501.13;;;9.09;78.80
71857;BME280;63344;46.980;28.882;2023-04-22T04:49:53;100505.00;;;9.24;78.56
71857;BME280;63344;46.980;28.882;2023-04-22T04:52:21;100493.09;;;9.61;78.48
71857;BME280;63344;46.980;28.882;2023-04-22T04:54:49;100505.28;;;10.12;79.95
71857;BME280;63344;46.980;28.882;2023-04-22T04:57:16;100497.25;;;10.59;78.45
71857;BME280;63344;46.980;28.882;2023-04-22T04:59:45;100501.44;;;11.07;77.78
71857;BME280;63344;46.980;28.882;2023-04-22T05:02:15;100495.28;;;11.67;77.62
71857;BME280;63344;46.980;28.882;2023-04-22T05:04:47;100496.56;;;12.17;73.14
71857;BME280;63344;46.980;28.882;2023-04-22T05:07:14;100500.78;;;12.40;70.68
71857;BME280;63344;46.980;28.882;2023-04-22T05:09:43;100501.53;;;12.61;70.34
71857;BME280;63344;46.980;28.882;2023-04-22T05:12:14;100499.91;;;12.75;69.48
71857;BME280;63344;46.980;28.882;2023-04-22T05:14:41;100502.09;;;12.67;66.17
71857;BME280;63344;46.980;28.882;2023-04-22T05:17:09;100508.94;;;12.37;63.49
71857;BME280;63344;46.980;28.882;2023-04-22T05:19:39;100508.66;;;12.05;64.09
71857;BME280;63344;46.980;28.882;2023-04-22T05:22:06;100501.53;;;11.66;64.10
71857;BME280;63344;46.980;28.882;2023-04-22T05:24:34;100514.97;;;11.42;66.19
71857;BME280;63344;46.980;28.882;2023-04-22T05:27:02;100505.84;;;11.29;67.60
71857;BME280;63344;46.980;28.882;2023-04-22T05:29:30;100506.75;;;11.28;68.35
71857;BME280;63344;46.980;28.882;2023-04-22T05:31:57;100505.63;;;11.33;67.96
71857;BME280;63344;46.980;28.882;2023-04-22T05:34:25;100504.50;;;11.39;67.40
71857;BME280;63344;46.980;28.882;2023-04-22T05:36:52;100501.69;;;11.42;66.54
71857;BME280;63344;46.980;28.882;2023-04-22T05:39:20;100497.91;;;11.48;66.90
71857;BME280;63344;46.980;28.882;2023-04-22T05:41:47;100501.22;;;11.53;66.79
71857;BME280;63344;46.980;28.882;2023-04-22T05:44:15;100500.38;;;11.52;66.38
71857;BME280;63344;46.980;28.882;2023-04-22T05:46:44;100499.47;;;11.52;66.13
71857;BME280;63344;46.980;28.882;2023-04-22T05:49:27;100509.72;;;11.61;65.79
71857;BME280;63344;46.980;28.882;2023-04-22T05:52:09;100503.31;;;11.65;65.51
71857;BME280;63344;46.980;28.882;2023-04-22T05:54:40;100503.84;;;11.73;65.16
71857;BME280;63344;46.980;28.882;2023-04-22T05:57:21;100502.56;;;11.82;65.63
71857;BME280;63344;46.980;28.882;2023-04-22T05:59:49;100514.56;;;11.92;65.46
71857;BME280;63344;46.980;28.882;2023-04-22T06:02:16;100505.94;;;12.06;65.68
71857;BME280;63344;46.980;28.882;2023-04-22T06:04:44;100510.66;;;12.19;64.78
71857;BME280;63344;46.980;28.882;2023-04-22T06:07:12;100511.22;;;12.25;64.62
71857;BME280;63344;46.980;28.882;2023-04-22T06:09:42;100510.63;;;12.38;63.58
71857;BME280;63344;46.980;28.882;2023-04-22T06:12:10;100510.03;;;12.50;64.40
71857;BME280;63344;46.980;28.882;2023-04-22T06:14:37;100512.91;;;12.64;63.30
71857;BME280;63344;46.980;28.882;2023-04-22T06:17:04;100510.56;;;12.75;62.85
71857;BME280;63344;46.980;28.882;2023-04-22T06:19:32;100508.84;;;12.92;62.73
71857;BME280;63344;46.980;28.882;2023-04-22T06:21:59;100507.22;;;13.07;61.67
71857;BME280;63344;46.980;28.882;2023-04-22T06:24:27;100510.44;;;13.13;61.78
71857;BME280;63344;46.980;28.882;2023-04-22T06:26:54;100512.56;;;13.24;60.66
71857;BME280;63344;46.980;28.882;2023-04-22T06:29:23;100515.13;;;13.26;60.14
71857;BME280;63344;46.980;28.882;2023-04-22T06:31:50;100516.00;;;13.26;60.34
71857;BME280;63344;46.980;28.882;2023-04-22T06:34:19;100520.72;;;13.21;59.31
71857;BME280;63344;46.980;28.882;2023-04-22T06:36:48;100514.78;;;13.16;60.10
71857;BME280;63344;46.980;28.882;2023-04-22T06:39:17;100513.28;;;13.10;60.13
71857;BME280;63344;46.980;28.882;2023-04-22T06:41:44;100507.69;;;13.15;59.90
71857;BME280;63344;46.980;28.882;2023-04-22T06:44:12;100509.25;;;13.19;60.28
71857;BME280;63344;46.980;28.882;2023-04-22T06:46:39;100511.47;;;13.28;59.50
71857;BME280;63344;46.980;28.882;2023-04-22T06:49:07;100509.91;;;13.42;60.17
71857;BME280;63344;46.980;28.882;2023-04-22T06:51:34;100511.56;;;13.44;59.59
71857;BME280;63344;46.980;28.882;2023-04-22T06:54:02;100514.34;;;13.59;60.18
71857;BME280;63344;46.980;28.882;2023-04-22T06:56:29;100509.84;;;13.77;59.37
71857;BME280;63344;46.980;28.882;2023-04-22T06:58:57;100517.03;;;13.92;59.19
71857;BME280;63344;46.980;28.882;2023-04-22T07:01:24;100512.22;;;14.14;58.69
71857;BME280;63344;46.980;28.882;2023-04-22T07:03:52;100515.41;;;14.21;57.15
71857;BME280;63344;46.980;28.882;2023-04-22T07:06:19;100514.81;;;14.32;55.39
71857;BME280;63344;46.980;28.882;2023-04-22T07:08:47;100521.09;;;14.47;56.13
71857;BME280;63344;46.980;28.882;2023-04-22T07:11:14;100519.56;;;14.59;56.51
71857;BME280;63344;46.980;28.882;2023-04-22T07:13:42;100519.72;;;14.71;54.73
71857;BME280;63344;46.980;28.882;2023-04-22T07:16:09;100519.91;;;14.68;53.23
71857;BME280;63344;46.980;28.882;2023-04-22T07:18:37;100520.41;;;14.59;53.25
71857;BME280;63344;46.980;28.882;2023-04-22T07:21:05;100521.97;;;14.63;54.48
71857;BME280;63344;46.980;28.882;2023-04-22T07:23:33;100512.47;;;14.73;53.73
71857;BME280;63344;46.980;28.882;2023-04-22T07:26:01;100520.66;;;14.86;53.87
71857;BME280;63344;46.980;28.882;2023-04-22T07:28:28;100529.78;;;14.98;54.08
71857;BME280;63344;46.980;28.882;2023-04-22T07:30:56;100522.19;;;15.21;53.19
71857;BME280;63344;46.980;28.882;2023-04-22T07:33:24;100525.25;;;15.29;53.33
71857;BME280;63344;46.980;28.882;2023-04-22T07:35:53;100524.06;;;15.49;52.88
71857;BME280;63344;46.980;28.882;2023-04-22T07:38:20;100518.19;;;15.72;53.35
71857;BME280;63344;46.980;28.882;2023-04-22T07:40:51;100523.44;;;15.88;52.60
71857;BME280;63344;46.980;28.882;2023-04-22T07:43:19;100530.22;;;16.08;52.80
71857;BME280;63344;46.980;28.882;2023-04-22T07:45:46;100534.13;;;16.17;52.05
71857;BME280;63344;46.980;28.882;2023-04-22T07:48:14;100531.44;;;16.31;51.86
71857;BME280;63344;46.980;28.882;2023-04-22T07:50:41;100533.75;;;16.38;52.06
71857;BME280;63344;46.980;28.882;2023-04-22T07:53:08;100535.25;;;16.42;51.63
71857;BME280;63344;46.980;28.882;2023-04-22T07:55:36;100535.63;;;16.50;51.16
71857;BME280;63344;46.980;28.882;2023-04-22T07:58:03;100540.84;;;16.66;50.39
71857;BME280;63344;46.980;28.882;2023-04-22T08:00:33;100538.03;;;16.67;50.90
71857;BME280;63344;46.980;28.882;2023-04-22T08:03:02;100529.63;;;16.73;50.12
71857;BME280;63344;46.980;28.882;2023-04-22T08:05:29;100529.31;;;16.78;50.51
71857;BME280;63344;46.980;28.882;2023-04-22T08:07:57;100526.44;;;16.81;50.32
71857;BME280;63344;46.980;28.882;2023-04-22T08:10:24;100524.88;;;16.77;50.10
71857;BME280;63344;46.980;28.882;2023-04-22T08:12:52;100529.72;;;16.72;50.09
71857;BME280;63344;46.980;28.882;2023-04-22T08:15:19;100529.13;;;16.67;49.71
71857;BME280;63344;46.980;28.882;2023-04-22T08:17:46;100533.38;;;16.57;49.80
71857;BME280;63344;46.980;28.882;2023-04-22T08:20:15;100538.66;;;16.58;50.25
71857;BME280;63344;46.980;28.882;2023-04-22T08:22:44;100535.47;;;16.66;50.61
71857;BME280;63344;46.980;28.882;2023-04-22T08:25:14;100527.88;;;16.72;50.98
71857;BME280;63344;46.980;28.882;2023-04-22T08:27:42;100524.53;;;16.69;49.51
71857;BME280;63344;46.980;28.882;2023-04-22T08:30:09;100527.72;;;16.61;49.28
71857;BME280;63344;46.980;28.882;2023-04-22T08:32:37;100531.56;;;16.57;49.31
71857;BME280;63344;46.980;28.882;2023-04-22T08:35:04;100533.56;;;16.68;49.01
71857;BME280;63344;46.980;28.882;2023-04-22T08:37:33;100537.06;;;16.83;48.62
71857;BME280;63344;46.980;28.882;2023-04-22T08:40:00;100517.88;;;16.89;49.00
71857;BME280;63344;46.980;28.882;2023-04-22T08:42:28;100520.72;;;17.00;48.63
71857;BME280;63344;46.980;28.882;2023-04-22T08:44:55;100513.50;;;17.01;48.68
71857;BME280;63344;46.980;28.882;2023-04-22T08:47:24;100522.97;;;16.79;48.32
71857;BME280;63344;46.980;28.882;2023-04-22T08:49:53;100517.22;;;16.58;48.80
71857;BME280;63344;46.980;28.882;2023-04-22T08:52:21;100517.53;;;16.39;49.88
71857;BME280;63344;46.980;28.882;2023-04-22T08:54:48;100518.91;;;16.32;50.93
71857;BME280;63344;46.980;28.882;2023-04-22T08:57:16;100525.16;;;16.18;50.39
71857;BME280;63344;46.980;28.882;2023-04-22T08:59:48;100521.88;;;16.27;50.83
71857;BME280;63344;46.980;28.882;2023-04-22T09:02:36;100527.97;;;16.29;50.67
71857;BME280;63344;46.980;28.882;2023-04-22T09:05:05;100524.22;;;16.46;50.45
71857;BME280;63344;46.980;28.882;2023-04-22T09:07:35;100522.38;;;17.41;49.56
71857;BME280;63344;46.980;28.882;2023-04-22T09:10:03;100525.50;;;18.86;46.22
71857;BME280;63344;46.980;28.882;2023-04-22T09:12:33;100512.63;;;20.39;43.44
71857;BME280;63344;46.980;28.882;2023-04-22T09:15:01;100514.09;;;21.19;40.07
71857;BME280;63344;46.980;28.882;2023-04-22T09:17:35;100525.56;;;21.75;38.71
71857;BME280;63344;46.980;28.882;2023-04-22T09:20:25;100513.81;;;22.96;36.83
71857;BME280;63344;46.980;28.882;2023-04-22T09:23:02;100504.59;;;23.84;34.86
71857;BME280;63344;46.980;28.882;2023-04-22T09:25:34;100509.59;;;24.44;32.47
71857;BME280;63344;46.980;28.882;2023-04-22T09:28:02;100500.59;;;25.16;31.56
71857;BME280;63344;46.980;28.882;2023-04-22T09:30:32;100505.09;;;25.69;31.55
71857;BME280;63344;46.980;28.882;2023-04-22T09:33:01;100512.50;;;25.85;28.69
71857;BME280;63344;46.980;28.882;2023-04-22T09:37:58;100500.38;;;25.45;28.92
71857;BME280;63344;46.980;28.882;2023-04-22T09:40:27;100501.47;;;25.87;28.88
71857;BME280;63344;46.980;28.882;2023-04-22T09:42:58;100506.31;;;26.01;28.13
71857;BME280;63344;46.980;28.882;2023-04-22T09:45:39;100488.94;;;26.28;28.63
71857;BME280;63344;46.980;28.882;2023-04-22T09:50:38;100496.69;;;26.66;25.67
71857;BME280;63344;46.980;28.882;2023-04-22T09:53:08;100496.00;;;26.72;26.32
71857;BME280;63344;46.980;28.882;2023-04-22T09:55:42;100495.88;;;26.90;26.50
71857;BME280;63344;46.980;28.882;2023-04-22T09:58:10;100495.72;;;26.91;25.84
71857;BME280;63344;46.980;28.882;2023-04-22T10:03:08;100495.16;;;25.34;28.18
71857;BME280;63344;46.980;28.882;2023-04-22T10:05:37;100498.81;;;25.95;27.81
71857;BME280;63344;46.980;28.882;2023-04-22T10:08:05;100490.06;;;25.57;26.31
71857;BME280;63344;46.980;28.882;2023-04-22T10:10:34;100481.22;;;25.55;26.01
71857;BME280;63344;46.980;28.882;2023-04-22T10:13:02;100482.22;;;25.54;25.85
71857;BME280;63344;46.980;28.882;2023-04-22T10:15:37;100488.44;;;25.46;26.09
71857;BME280;63344;46.980;28.882;2023-04-22T10:18:10;100494.19;;;25.61;25.24
71857;BME280;63344;46.980;28.882;2023-04-22T10:20:40;100480.47;;;24.37;25.85
71857;BME280;63344;46.980;28.882;2023-04-22T10:23:13;100477.09;;;23.60;27.74
71857;BME280;63344;46.980;28.882;2023-04-22T10:25:46;100473.84;;;23.94;27.07
71857;BME280;63344;46.980;28.882;2023-04-22T10:28:16;100482.88;;;23.37;27.50
71857;BME280;63344;46.980;28.882;2023-04-22T10:30:43;100482.38;;;22.25;28.44
71857;BME280;63344;46.980;28.882;2023-04-22T10:36:11;100480.25;;;22.28;28.38
71857;BME280;63344;46.980;28.882;2023-04-22T10:41:25;100475.13;;;24.45;26.26
71857;BME280;63344;46.980;28.882;2023-04-22T10:43:57;100469.97;;;25.50;26.03
71857;BME280;63344;46.980;28.882;2023-04-22T10:49:10;100455.84;;;26.98;24.08
71857;BME280;63344;46.980;28.882;2023-04-22T10:51:49;100462.09;;;25.99;24.91
71857;BME280;63344;46.980;28.882;2023-04-22T10:57:03;100464.78;;;22.60;27.08
71857;BME280;63344;46.980;28.882;2023-04-22T10:59:33;100468.59;;;21.66;28.45
71857;BME280;63344;46.980;28.882;2023-04-22T11:02:01;100468.56;;;20.94;28.93
71857;BME280;63344;46.980;28.882;2023-04-22T11:04:29;100475.22;;;20.46;29.93
71857;BME280;63344;46.980;28.882;2023-04-22T11:10:36;100474.47;;;19.20;31.70
71857;BME280;63344;46.980;28.882;2023-04-22T11:13:21;100470.31;;;20.40;30.03
71857;BME280;63344;46.980;28.882;2023-04-22T11:15:52;100469.97;;;20.33;29.33
71857;BME280;63344;46.980;28.882;2023-04-22T11:18:23;100468.34;;;20.53;30.20
71857;BME280;63344;46.980;28.882;2023-04-22T11:20:52;100458.03;;;21.94;28.75
71857;BME280;63344;46.980;28.882;2023-04-22T11:23:25;100455.88;;;23.45;26.09
71857;BME280;63344;46.980;28.882;2023-04-22T11:25:58;100440.97;;;24.24;24.34
71857;BME280;63344;46.980;28.882;2023-04-22T11:28:27;100448.94;;;24.26;24.94
71857;BME280;63344;46.980;28.882;2023-04-22T11:31:07;100454.78;;;23.29;25.57
71857;BME280;63344;46.980;28.882;2023-04-22T11:33:36;100459.09;;;22.63;26.60
71857;BME280;63344;46.980;28.882;2023-04-22T11:36:10;100462.97;;;21.79;26.72
71857;BME280;63344;46.980;28.882;2023-04-22T11:38:38;100458.94;;;20.80;26.48
71857;BME280;63344;46.980;28.882;2023-04-22T11:41:05;100462.03;;;20.20;27.26
71857;BME280;63344;46.980;28.882;2023-04-22T11:43:32;100462.44;;;19.82;28.33
71857;BME280;63344;46.980;28.882;2023-04-22T11:46:00;100452.28;;;19.85;27.70
71857;BME280;63344;46.980;28.882;2023-04-22T11:48:28;100460.44;;;21.36;26.53
71857;BME280;63344;46.980;28.882;2023-04-22T11:51:09;100449.50;;;22.39;24.59
71857;BME280;63344;46.980;28.882;2023-04-22T11:53:37;100453.19;;;22.38;24.65
71857;BME280;63344;46.980;28.882;2023-04-22T11:56:07;100439.56;;;22.59;24.73
71857;BME280;63344;46.980;28.882;2023-04-22T11:58:38;100444.25;;;22.47;24.46
71857;BME280;63344;46.980;28.882;2023-04-22T12:01:11;100434.16;;;22.79;25.45
71857;BME280;63344;46.980;28.882;2023-04-22T12:03:39;100438.38;;;23.77;25.52
71857;BME280;63344;46.980;28.882;2023-04-22T12:06:11;100437.06;;;23.72;25.48
71857;BME280;63344;46.980;28.882;2023-04-22T12:08:39;100430.84;;;23.61;25.54
71857;BME280;63344;46.980;28.882;2023-04-22T12:11:09;100428.78;;;23.83;26.15
71857;BME280;63344;46.980;28.882;2023-04-22T12:13:43;100428.56;;;23.94;26.18
71857;BME280;63344;46.980;28.882;2023-04-22T12:16:16;100425.63;;;23.88;26.30
71857;BME280;63344;46.980;28.882;2023-04-22T12:18:47;100423.16;;;24.76;24.44
71857;BME280;63344;46.980;28.882;2023-04-22T12:21:22;100425.78;;;25.03;24.35
71857;BME280;63344;46.980;28.882;2023-04-22T12:24:07;100426.16;;;24.64;23.70
71857;BME280;63344;46.980;28.882;2023-04-22T12:26:36;100426.41;;;23.23;24.67
71857;BME280;63344;46.980;28.882;2023-04-22T12:29:06;100429.56;;;22.50;25.46
71857;BME280;63344;46.980;28.882;2023-04-22T12:31:36;100434.13;;;23.18;25.91
71857;BME280;63344;46.980;28.882;2023-04-22T12:34:06;100436.00;;;24.38;24.90
71857;BME280;63344;46.980;28.882;2023-04-22T12:36:34;100428.69;;;25.10;23.21
71857;BME280;63344;46.980;28.882;2023-04-22T12:39:17;100432.66;;;25.16;22.16
71857;BME280;63344;46.980;28.882;2023-04-22T12:42:00;100432.78;;;25.32;22.84
71857;BME280;63344;46.980;28.882;2023-04-22T12:44:27;100424.22;;;25.01;22.56
71857;BME280;63344;46.980;28.882;2023-04-22T12:46:54;100430.91;;;25.24;22.68
71857;BME280;63344;46.980;28.882;2023-04-22T12:49:22;100430.34;;;24.59;23.53
71857;BME280;63344;46.980;28.882;2023-04-22T12:51:49;100437.72;;;23.93;24.64
71857;BME280;63344;46.980;28.882;2023-04-22T12:54:23;100442.34;;;23.73;24.85
71857;BME280;63344;46.980;28.882;2023-04-22T12:56:56;100447.22;;;23.22;25.82
71857;BME280;63344;46.980;28.882;2023-04-22T12:59:24;100427.97;;;23.16;26.51
71857;BME280;63344;46.980;28.882;2023-04-22T13:01:52;100438.94;;;22.36;26.85
71857;BME280;63344;46.980;28.882;2023-04-22T13:04:31;100453.66;;;21.41;27.43
71857;BME280;63344;46.980;28.882;2023-04-22T13:06:59;100453.09;;;20.96;29.07
71857;BME280;63344;46.980;28.882;2023-04-22T13:09:40;100442.56;;;20.60;28.47
71857;BME280;63344;46.980;28.882;2023-04-22T13:12:08;100452.91;;;20.44;28.43
71857;BME280;63344;46.980;28.882;2023-04-22T13:14:35;100456.41;;;20.23;29.44